Time;durP1;ratioP1;P1;durP2;ratioP2;P2;SDS_P1;SDS_P2;PMS_P1;PMS_P2;Temp;Humidity;BMP_temperature;BMP_pressure;BME280_temperature;BME280_humidity;BME280_pressure;Samples;Min_cycle;Max_cycle;Signal;HPM_P1;HPM_P2
2021/06/05 00:00:53;;;;;;;;;0.00;0.00;;;;;16.22;69.10;101928.91;5069038;27;45481;-80
2021/06/05 00:03:19;;;;;;;;;0.00;0.00;;;;;16.22;69.10;101936.81;5069813;28;46413;-79
2021/06/05 00:05:52;;;;;;;;;0.00;0.00;;;;;15.90;69.15;101885.84;5069935;28;45391;-81
2021/06/05 00:08:20;;;;;;;;;0.00;0.00;;;;;16.37;69.03;101958.75;5069965;27;45563;-82
2021/06/05 00:10:55;;;;;;;;;2.00;1.00;;;;;16.18;68.72;101919.28;5066656;28;45457;-82
2021/06/05 00:13:46;;;;;;;;;0.00;0.00;;;;;16.41;68.66;101944.75;5067611;28;45653;-81
2021/06/05 00:16:19;;;;;;;;;0.00;0.00;;;;;16.43;68.89;101950.88;5061407;28;45436;-82
2021/06/05 00:18:47;;;;;;;;;0.50;0.50;;;;;16.31;68.80;101942.09;5066914;28;45571;-82
2021/06/05 00:21:13;;;;;;;;;0.00;0.00;;;;;16.33;68.63;101948.22;5073311;28;45502;-81
2021/06/05 00:23:38;;;;;;;;;0.00;0.00;;;;;16.32;68.50;101935.97;5071361;28;46046;-82
2021/06/05 00:26:05;;;;;;;;;0.25;0.00;;;;;16.27;68.58;101924.56;5067339;28;45698;-82
2021/06/05 00:28:30;;;;;;;;;0.00;0.00;;;;;16.30;68.36;101923.69;5071527;28;45457;-81
2021/06/05 00:30:56;;;;;;;;;0.00;0.00;;;;;16.30;68.82;101928.94;5070569;27;45768;-81
2021/06/05 00:33:22;;;;;;;;;0.00;0.00;;;;;16.02;68.54;101881.56;5068208;28;45481;-82
2021/06/05 00:35:47;;;;;;;;;0.00;0.00;;;;;16.40;68.63;101954.41;5072627;28;45566;-82
2021/06/05 00:38:13;;;;;;;;;0.00;0.00;;;;;16.41;68.83;101950.88;5073637;27;46009;-81
2021/06/05 00:40:44;;;;;;;;;0.00;0.00;;;;;16.34;68.68;101931.59;5068573;28;45391;-82
2021/06/05 00:43:12;;;;;;;;;0.00;0.00;;;;;16.44;68.28;101953.53;5069835;28;46179;-82
2021/06/05 00:45:41;;;;;;;;;0.00;0.00;;;;;16.39;68.64;101949.13;5067883;28;45620;-82
2021/06/05 00:48:07;;;;;;;;;0.00;0.00;;;;;16.21;68.63;101927.16;5069272;28;45549;-82
2021/06/05 00:50:33;;;;;;;;;0.00;0.00;;;;;16.27;69.03;101953.47;5072853;28;45426;-82
2021/06/05 00:52:59;;;;;;;;;0.25;0.00;;;;;16.13;69.39;101942.88;5069216;27;45511;-82
2021/06/05 00:55:28;;;;;;;;;0.00;0.00;;;;;16.13;69.45;101953.41;5068302;27;45421;-82
2021/06/05 00:57:54;;;;;;;;;1.00;0.00;;;;;15.84;69.80;101925.22;5069159;28;45518;-83
2021/06/05 01:00:34;;;;;;;;;0.00;0.00;;;;;15.95;69.84;101941.91;5069100;27;45476;-81
2021/06/05 01:03:01;;;;;;;;;0.00;0.00;;;;;15.83;69.76;101928.69;5068982;28;45843;-83
2021/06/05 01:05:28;;;;;;;;;0.00;0.00;;;;;15.49;69.95;101884.75;5072683;28;45539;-81
2021/06/05 01:08:01;;;;;;;;;0.00;0.00;;;;;15.88;69.84;101942.75;5061081;27;45667;-82
2021/06/05 01:10:31;;;;;;;;;0.00;0.00;;;;;15.80;70.47;101941.78;5065351;28;45622;-82
2021/06/05 01:13:18;;;;;;;;;0.00;0.00;;;;;15.70;70.34;101928.63;5068886;28;46065;-82
2021/06/05 01:15:54;;;;;;;;;0.00;0.00;;;;;15.78;70.61;101935.69;5067410;28;45702;-82
2021/06/05 01:18:24;;;;;;;;;0.00;0.00;;;;;15.82;70.48;101938.34;5067002;27;45655;-82
2021/06/05 01:21:08;;;;;;;;;0.00;0.00;;;;;15.87;70.32;101935.75;5069759;28;45584;-82
2021/06/05 01:24:01;;;;;;;;;1.25;0.25;;;;;15.88;70.83;101926.09;5071967;27;46174;-82
2021/06/05 01:26:36;;;;;;;;;0.00;0.00;;;;;15.88;70.73;101932.22;5070002;27;45399;-82
2021/06/05 01:29:15;;;;;;;;;0.00;0.00;;;;;15.86;70.61;101920.84;5071695;28;45823;-81
2021/06/05 01:31:45;;;;;;;;;1.50;0.00;;;;;15.86;70.88;101925.22;5071857;28;45644;-81
2021/06/05 01:34:10;;;;;;;;;1.00;0.00;;;;;15.57;70.91;101890.94;5063895;28;48412;-82
2021/06/05 01:36:43;;;;;;;;;1.00;0.00;;;;;15.74;71.02;101934.75;5073706;28;45532;-83
2021/06/05 01:39:12;;;;;;;;;0.50;0.00;;;;;15.59;71.06;101906.66;5071864;28;45357;-80
2021/06/05 01:41:41;;;;;;;;;0.00;0.00;;;;;15.66;71.57;101932.13;5065189;27;45428;-83
2021/06/05 01:44:08;;;;;;;;;0.25;0.00;;;;;15.41;71.24;101896.94;5076474;28;46414;-83
2021/06/05 01:46:38;;;;;;;;;0.00;0.00;;;;;15.70;71.17;101930.38;5076900;28;45465;-83
2021/06/05 01:49:05;;;;;;;;;0.50;0.00;;;;;15.45;71.18;101889.13;5063909;28;45399;-82
2021/06/05 01:51:33;;;;;;;;;0.00;0.00;;;;;15.75;71.13;101935.66;5071923;28;45498;-82
2021/06/05 01:54:06;;;;;;;;;0.50;0.00;;;;;15.78;71.26;101941.81;5073865;28;45531;-80
2021/06/05 01:56:38;;;;;;;;;0.00;0.00;;;;;15.87;70.96;101941.00;5073760;27;45599;-81
2021/06/05 01:59:05;;;;;;;;;0.00;0.00;;;;;15.91;71.14;101945.38;5076854;27;45621;-81
2021/06/05 02:01:31;;;;;;;;;3.00;0.00;;;;;15.95;70.68;101936.66;5074936;28;45659;-81
2021/06/05 02:03:56;;;;;;;;;0.00;0.00;;;;;15.96;70.45;101929.69;5074636;28;46454;-81
2021/06/05 02:06:24;;;;;;;;;0.00;0.00;;;;;15.93;70.64;101929.63;5073446;27;45522;-82
2021/06/05 02:08:49;;;;;;;;;1.50;1.00;;;;;15.87;71.08;101924.34;5073755;27;45457;-82
2021/06/05 02:11:18;;;;;;;;;0.00;0.00;;;;;15.93;70.81;101934.88;5077642;27;45503;-82
2021/06/05 02:14:02;;;;;;;;;2.00;0.00;;;;;15.96;70.51;101924.44;5061502;27;45517;-82
2021/06/05 02:16:42;;;;;;;;;0.00;0.00;;;;;15.81;70.74;101909.44;5071525;27;46141;-82
2021/06/05 02:19:27;;;;;;;;;0.00;0.00;;;;;15.58;71.52;101891.78;5062803;28;45431;-82
2021/06/05 02:21:57;;;;;;;;;0.00;0.00;;;;;15.53;71.66;101901.41;5073504;28;45454;-81
2021/06/05 02:24:28;;;;;;;;;1.00;0.50;;;;;15.28;71.96;101877.63;5076420;28;48559;-82
2021/06/05 02:26:53;;;;;;;;;2.75;0.00;;;;;15.51;71.51;101913.63;5074755;28;45636;-81
2021/06/05 02:29:25;;;;;;;;;1.00;1.00;;;;;15.53;71.49;101917.16;5074213;28;45349;-82
2021/06/05 02:31:51;;;;;;;;;0.00;0.00;;;;;15.58;71.48;101931.16;5062408;28;45279;-82
2021/06/05 02:34:21;;;;;;;;;0.00;0.00;;;;;15.46;71.65;101924.09;5062456;27;45434;-82
2021/06/05 02:36:48;;;;;;;;;0.75;0.00;;;;;14.94;72.23;101842.41;5066487;27;45386;-82
2021/06/05 02:39:18;;;;;;;;;0.00;0.00;;;;;14.78;72.10;101848.38;5068757;28;45417;-82
2021/06/05 02:41:45;;;;;;;;;1.00;0.00;;;;;15.13;72.89;101922.97;5055458;28;45837;-82
2021/06/05 02:44:15;;;;;;;;;0.00;0.00;;;;;14.96;73.14;101910.56;5076933;28;45484;-82
2021/06/05 02:46:42;;;;;;;;;0.00;0.00;;;;;14.88;72.72;101888.66;5060126;28;45321;-82
2021/06/05 02:49:26;;;;;;;;;0.00;0.00;;;;;15.20;72.39;101927.41;5073567;27;45327;-82
2021/06/05 02:51:56;;;;;;;;;0.00;0.00;;;;;15.20;72.83;101924.78;5065868;28;46652;-82
2021/06/05 02:54:24;;;;;;;;;0.50;0.00;;;;;15.10;72.68;101915.06;5069358;28;45490;-82
2021/06/05 02:56:50;;;;;;;;;0.25;0.00;;;;;14.70;73.13;101862.25;5071268;28;45401;-82
2021/06/05 02:59:15;;;;;;;;;0.00;0.00;;;;;14.94;72.95;101923.66;5074302;28;50925;-82
2021/06/05 03:01:41;;;;;;;;;0.25;0.00;;;;;14.79;73.21;101907.78;5076630;28;45613;-82
2021/06/05 03:04:06;;;;;;;;;0.00;0.00;;;;;14.77;74.15;101912.13;5073413;28;46291;-82
2021/06/05 03:06:32;;;;;;;;;0.00;0.00;;;;;14.54;73.20;101870.81;5072409;28;45595;-82
2021/06/05 03:08:58;;;;;;;;;0.75;0.75;;;;;14.40;73.67;101847.97;5072884;28;45306;-83
2021/06/05 03:11:26;;;;;;;;;0.00;0.00;;;;;14.74;73.82;101905.09;5073089;27;48322;-83
2021/06/05 03:13:52;;;;;;;;;0.00;0.00;;;;;14.72;73.68;101887.59;5061182;28;46280;-82
2021/06/05 03:16:19;;;;;;;;;1.25;1.00;;;;;14.90;73.00;101893.06;5073823;28;45449;-82
2021/06/05 03:18:45;;;;;;;;;0.00;0.00;;;;;15.08;72.79;101909.81;5072161;28;45418;-82
2021/06/05 03:21:13;;;;;;;;;0.25;0.00;;;;;15.12;72.59;101916.84;5072788;27;45555;-83
2021/06/05 03:23:39;;;;;;;;;1.50;0.50;;;;;15.01;72.46;101898.38;5072349;28;45519;-81
2021/06/05 03:26:06;;;;;;;;;0.00;0.00;;;;;15.16;72.08;101917.75;5075209;27;45354;-83
2021/06/05 03:28:33;;;;;;;;;0.00;0.00;;;;;14.92;72.04;101870.34;5075090;27;45554;-82
2021/06/05 03:31:00;;;;;;;;;0.25;0.25;;;;;15.20;71.94;101925.63;5073497;28;45543;-82
2021/06/05 03:33:25;;;;;;;;;2.75;1.00;;;;;14.97;72.36;101878.25;5067738;28;45389;-83
2021/06/05 03:35:53;;;;;;;;;0.00;0.00;;;;;15.28;72.07;101922.22;5064366;28;46121;-82
2021/06/05 03:38:20;;;;;;;;;1.00;0.00;;;;;15.32;71.63;101921.38;5073299;27;45542;-82
2021/06/05 03:40:45;;;;;;;;;0.00;0.00;;;;;15.27;71.65;101912.56;5075347;27;45859;-82
2021/06/05 03:43:11;;;;;;;;;0.00;0.00;;;;;15.27;71.72;101912.56;5074881;28;46366;-82
2021/06/05 03:45:37;;;;;;;;;0.00;0.00;;;;;15.23;71.68;101910.78;5066469;28;45520;-82
2021/06/05 03:48:04;;;;;;;;;0.00;0.00;;;;;15.26;71.76;101910.81;5066136;28;45499;-82
2021/06/05 03:50:36;;;;;;;;;0.00;0.00;;;;;15.16;71.61;101907.25;5072568;28;45511;-82
2021/06/05 03:53:01;;;;;;;;;0.50;0.50;;;;;14.86;71.85;101872.94;5073516;28;48840;-82
2021/06/05 03:55:27;;;;;;;;;0.00;0.00;;;;;15.05;71.91;101894.03;5071163;28;45451;-82
2021/06/05 03:57:53;;;;;;;;;0.00;0.00;;;;;15.14;71.98;101901.13;5071871;28;45413;-82
2021/06/05 04:00:24;;;;;;;;;1.75;0.00;;;;;15.17;71.87;101901.13;5071889;28;45447;-82
2021/06/05 04:02:49;;;;;;;;;1.50;0.50;;;;;15.05;71.60;101883.56;5071429;27;45702;-81
2021/06/05 04:05:15;;;;;;;;;1.00;0.00;;;;;15.20;71.50;101912.50;5073076;28;45392;-82
2021/06/05 04:07:41;;;;;;;;;0.75;0.75;;;;;15.15;71.63;101908.09;5075499;27;45487;-82
2021/06/05 04:10:09;;;;;;;;;1.00;0.00;;;;;14.91;71.54;101863.34;5063198;28;45505;-82
2021/06/05 04:12:34;;;;;;;;;0.00;0.00;;;;;15.11;71.47;101894.09;5060611;28;45372;-82
2021/06/05 04:15:00;;;;;;;;;0.50;0.50;;;;;15.18;71.63;101916.00;5064927;28;45358;-82
2021/06/05 04:17:25;;;;;;;;;0.00;0.00;;;;;14.89;71.52;101872.06;5071621;28;45354;-82
2021/06/05 04:19:50;;;;;;;;;0.25;0.25;;;;;15.13;71.89;101917.72;5076615;28;45678;-82
2021/06/05 04:22:16;;;;;;;;;0.00;0.00;;;;;15.18;71.13;101924.75;5072298;27;46563;-82
2021/06/05 04:24:41;;;;;;;;;0.75;0.75;;;;;14.98;71.56;101882.66;5071636;28;45307;-82
2021/06/05 04:27:08;;;;;;;;;1.25;1.25;;;;;15.15;71.22;101910.72;5072795;28;45465;-82
2021/06/05 04:29:35;;;;;;;;;0.00;0.00;;;;;14.95;71.01;101885.25;5071622;27;45331;-82
2021/06/05 04:32:00;;;;;;;;;1.00;0.00;;;;;15.04;71.39;101908.88;5074619;28;46544;-82
2021/06/05 04:34:25;;;;;;;;;1.75;1.25;;;;;15.01;71.21;101897.50;5073204;28;45411;-81
2021/06/05 04:36:52;;;;;;;;;0.00;0.00;;;;;15.09;71.11;101911.56;5071885;28;45480;-81
2021/06/05 04:39:19;;;;;;;;;0.00;0.00;;;;;15.10;71.07;101899.34;5071695;28;45401;-82
2021/06/05 04:41:45;;;;;;;;;0.00;0.00;;;;;15.26;70.93;101929.19;5071061;28;45491;-82
2021/06/05 04:44:11;;;;;;;;;0.00;0.00;;;;;15.34;70.76;101943.22;5070925;28;45971;-82
2021/06/05 04:46:36;;;;;;;;;0.00;0.00;;;;;15.19;70.80;101921.25;5076270;27;45352;-82
2021/06/05 04:49:03;;;;;;;;;0.50;0.00;;;;;15.29;70.51;101940.56;5063127;28;45299;-82
2021/06/05 04:51:30;;;;;;;;;1.00;1.00;;;;;15.23;70.49;101945.78;5068727;28;46097;-82
2021/06/05 04:53:56;;;;;;;;;1.00;0.00;;;;;15.17;70.68;101946.63;5071009;27;45591;-81
2021/06/05 04:56:25;;;;;;;;;0.00;0.00;;;;;15.15;70.37;101950.06;5071576;28;45417;-82
2021/06/05 04:58:51;;;;;;;;;0.00;0.00;;;;;14.77;70.31;101902.53;5059848;28;45727;-81
2021/06/05 05:01:16;;;;;;;;;0.00;0.00;;;;;15.04;70.35;101956.09;5071930;28;45460;-82
2021/06/05 05:03:42;;;;;;;;;0.00;0.00;;;;;15.02;70.49;101972.69;5071107;28;45487;-82
2021/06/05 05:06:07;;;;;;;;;0.00;0.00;;;;;14.74;70.90;101927.81;5071237;27;45299;-83
2021/06/05 05:08:33;;;;;;;;;0.75;0.00;;;;;15.02;70.39;101977.94;5074868;28;45531;-82
2021/06/05 05:10:59;;;;;;;;;0.75;0.00;;;;;15.05;70.63;101978.84;5078303;27;46228;-82
2021/06/05 05:13:28;;;;;;;;;0.00;0.00;;;;;15.05;70.45;101973.59;5074107;27;45399;-82
2021/06/05 05:15:55;;;;;;;;;0.00;0.00;;;;;15.05;70.66;101975.34;5074203;28;45484;-82
2021/06/05 05:18:22;;;;;;;;;0.00;0.00;;;;;14.93;70.68;101981.34;5074744;27;45421;-82
2021/06/05 05:20:48;;;;;;;;;0.00;0.00;;;;;14.92;70.81;101984.84;5073877;28;46166;-82
2021/06/05 05:23:14;;;;;;;;;0.00;0.00;;;;;14.88;70.96;101993.53;5075972;27;45594;-82
2021/06/05 05:25:42;;;;;;;;;1.00;1.00;;;;;14.77;70.96;101998.59;5077786;28;45452;-82
2021/06/05 05:28:09;;;;;;;;;0.00;0.00;;;;;14.75;71.32;102005.56;5076513;28;45535;-82
2021/06/05 05:30:38;;;;;;;;;0.25;0.00;;;;;14.79;71.22;102003.03;5072033;27;45579;-82
2021/06/05 05:33:05;;;;;;;;;1.25;0.25;;;;;14.80;71.21;102007.41;5075568;27;45580;-82
2021/06/05 05:35:32;;;;;;;;;1.50;0.00;;;;;14.52;71.01;101959.88;5078184;28;45481;-81
2021/06/05 05:37:58;;;;;;;;;0.00;0.00;;;;;14.82;70.97;102000.44;5063681;28;45495;-82
2021/06/05 05:40:26;;;;;;;;;0.25;0.25;;;;;14.70;70.72;101993.28;5075618;28;46024;-82
2021/06/05 05:42:51;;;;;;;;;0.25;0.00;;;;;14.89;70.66;102029.38;5079650;28;45382;-82
2021/06/05 05:45:17;;;;;;;;;0.25;0.25;;;;;14.79;70.60;102008.28;5070996;27;45483;-81
2021/06/05 05:47:43;;;;;;;;;3.25;0.00;;;;;14.91;70.76;102028.50;5066002;28;45288;-82
2021/06/05 05:50:11;;;;;;;;;0.00;0.00;;;;;14.82;70.62;102021.41;5076684;27;45524;-81
2021/06/05 05:52:36;;;;;;;;;1.00;1.00;;;;;14.71;71.02;101994.19;5077401;27;45505;-82
2021/06/05 05:55:04;;;;;;;;;1.50;0.00;;;;;14.99;70.52;102041.72;5077861;27;45507;-79
2021/06/05 05:57:30;;;;;;;;;0.00;0.00;;;;;14.95;70.08;102032.91;5076928;27;45641;-81
2021/06/05 05:59:55;;;;;;;;;0.25;0.25;;;;;14.89;70.44;102052.97;5075792;28;46293;-81
2021/06/05 06:02:20;;;;;;;;;0.00;0.00;;;;;14.78;70.60;102044.94;5075295;28;45765;-83
2021/06/05 06:04:46;;;;;;;;;0.00;0.00;;;;;14.68;71.31;102033.47;5077140;27;45574;-83
2021/06/05 06:07:11;;;;;;;;;0.00;0.00;;;;;14.68;71.11;102043.94;5079301;27;45401;-84
2021/06/05 06:09:36;;;;;;;;;0.00;0.00;;;;;14.08;71.19;101952.38;5074704;28;45381;-84
2021/06/05 06:12:02;;;;;;;;;0.50;0.50;;;;;14.52;70.82;102014.03;5073668;28;45504;-83
2021/06/05 06:14:27;;;;;;;;;0.00;0.00;;;;;14.45;70.71;102007.81;5093184;27;45551;-83
2021/06/05 06:16:53;;;;;;;;;0.00;0.00;;;;;14.22;70.66;101971.75;5079458;27;45422;-84
2021/06/05 06:19:18;;;;;;;;;1.00;0.25;;;;;14.40;70.80;102010.38;5062790;28;47622;-85
2021/06/05 06:21:44;;;;;;;;;0.00;0.00;;;;;14.24;71.13;101990.97;5062299;27;45435;-85
2021/06/05 06:24:11;;;;;;;;;0.25;0.25;;;;;14.08;71.48;101971.56;5076860;27;45587;-89
2021/06/05 06:26:38;;;;;;;;;0.25;0.25;;;;;14.09;71.45;101978.53;5096851;27;45484;-89
2021/06/05 06:29:16;;;;;;;;;0.00;0.00;;;;;13.46;71.49;101877.31;5076198;27;47412;-89
2021/06/05 06:31:44;;;;;;;;;0.00;0.00;;;;;14.74;71.33;102059.75;5063166;28;45311;-90
2021/06/05 06:34:10;;;;;;;;;0.00;0.00;;;;;14.63;70.99;102041.25;5079155;28;45338;-85
2021/06/05 06:36:38;;;;;;;;;0.25;0.25;;;;;14.74;70.88;102058.84;5075733;28;45426;-87
2021/06/05 06:39:05;;;;;;;;;0.00;0.00;;;;;14.78;71.10;102061.56;5074214;28;47237;-87
2021/06/05 06:41:31;;;;;;;;;0.00;0.00;;;;;14.88;70.66;102067.78;5075396;28;45710;-83
2021/06/05 06:43:59;;;;;;;;;0.00;0.00;;;;;14.93;70.63;102073.09;5078048;27;45459;-85
2021/06/05 06:46:28;;;;;;;;;1.25;0.00;;;;;15.02;70.37;102074.94;5076807;28;45550;-82
2021/06/05 06:48:56;;;;;;;;;0.50;0.25;;;;;15.02;70.28;102078.47;5072880;27;46239;-90
2021/06/05 06:51:23;;;;;;;;;0.00;0.00;;;;;14.81;69.99;102043.25;5067936;28;45566;-82
2021/06/05 06:53:48;;;;;;;;;0.00;0.00;;;;;14.96;70.11;102054.78;5072744;27;45489;-80
2021/06/05 06:56:15;;;;;;;;;0.75;0.25;;;;;15.12;69.90;102082.06;5076197;28;45306;-84
2021/06/05 06:58:40;;;;;;;;;0.25;0.25;;;;;15.16;69.94;102086.47;5076979;28;46377;-83
2021/06/05 07:01:07;;;;;;;;;3.00;0.00;;;;;15.31;69.92;102088.38;5078382;27;45539;-86
2021/06/05 07:03:32;;;;;;;;;0.50;0.50;;;;;15.43;69.40;102085.00;5068580;28;45691;-83
2021/06/05 07:05:58;;;;;;;;;0.00;0.00;;;;;15.41;69.13;102070.97;5071867;27;45598;-82
2021/06/05 07:08:27;;;;;;;;;1.75;0.00;;;;;15.60;68.81;102092.16;5061786;28;45944;-81
2021/06/05 07:10:56;;;;;;;;;0.00;0.00;;;;;15.58;68.49;102088.63;5070844;28;45573;-82
2021/06/05 07:13:22;;;;;;;;;0.00;0.00;;;;;15.57;68.17;102086.88;5069285;27;45778;-80
2021/06/05 07:15:47;;;;;;;;;0.00;0.00;;;;;15.60;68.47;102094.78;5073060;27;45385;-83
2021/06/05 07:18:15;;;;;;;;;0.00;0.00;;;;;15.62;68.35;102084.31;5072474;28;45500;-84
2021/06/05 07:20:41;;;;;;;;;0.00;0.00;;;;;15.78;68.12;102090.56;5071861;27;45526;-86
2021/06/05 07:23:07;;;;;;;;;0.00;0.00;;;;;15.92;67.79;102088.94;5098345;27;45603;-84
2021/06/05 07:25:32;;;;;;;;;0.00;0.00;;;;;16.04;67.78;102085.56;5074182;27;45545;-84
2021/06/05 07:27:58;;;;;;;;;0.00;0.00;;;;;15.55;67.29;101986.25;5072056;27;45491;-85
2021/06/05 07:30:25;;;;;;;;;0.00;0.00;;;;;16.06;66.74;102069.81;5078052;27;45534;-89
2021/06/05 07:32:51;;;;;;;;;0.00;0.00;;;;;16.23;67.03;102079.56;5067995;27;45481;-84
2021/06/05 07:35:17;;;;;;;;;0.00;0.00;;;;;16.42;66.46;102084.03;5070499;27;45563;-83
2021/06/05 07:37:43;;;;;;;;;0.00;0.00;;;;;16.52;66.43;102089.34;5080127;27;45568;-82
2021/06/05 07:40:11;;;;;;;;;0.00;0.00;;;;;16.52;66.00;102089.34;5073655;27;45526;-81
2021/06/05 07:42:38;;;;;;;;;2.50;0.00;;;;;16.55;66.14;102097.25;5077636;27;45773;-85
2021/06/05 07:45:07;;;;;;;;;0.00;0.00;;;;;16.42;65.93;102072.66;5077193;27;45390;-85
2021/06/05 07:47:32;;;;;;;;;0.75;0.00;;;;;16.52;66.12;102076.19;5068503;27;45472;-81
2021/06/05 07:49:59;;;;;;;;;0.00;0.00;;;;;16.71;66.16;102087.69;5060291;27;45440;-83
2021/06/05 07:52:24;;;;;;;;;0.00;0.00;;;;;16.69;65.69;102066.66;5074621;27;46227;-80
2021/06/05 07:54:52;;;;;;;;;0.00;0.00;;;;;16.80;65.02;102073.69;5078888;27;45404;-82
2021/06/05 07:57:18;;;;;;;;;0.00;0.00;;;;;16.73;65.31;102067.53;5069569;27;45518;-79
2021/06/05 07:59:44;;;;;;;;;1.25;1.25;;;;;16.72;65.06;102069.28;5068017;27;45504;-80
2021/06/05 08:02:10;;;;;;;;;0.00;0.00;;;;;16.84;65.04;102096.50;5065805;27;45456;-80
2021/06/05 08:04:35;;;;;;;;;1.00;0.00;;;;;16.82;64.40;102082.47;5067268;27;45473;-82
2021/06/05 08:07:01;;;;;;;;;0.00;0.00;;;;;16.64;65.15;102047.34;5080239;27;46472;-83
2021/06/05 08:09:26;;;;;;;;;0.50;0.00;;;;;16.98;64.95;102093.94;5064707;27;45461;-81
2021/06/05 08:11:51;;;;;;;;;0.00;0.00;;;;;16.72;64.56;102061.41;5068642;27;45489;-87
2021/06/05 08:14:17;;;;;;;;;1.00;0.25;;;;;16.77;64.21;102068.41;5095152;27;45524;-93
2021/06/05 08:16:43;;;;;;;;;0.00;0.00;;;;;16.94;63.99;102102.69;5090127;27;46526;-86
2021/06/05 08:19:11;;;;;;;;;0.00;0.00;;;;;16.92;64.08;102104.44;5070373;27;45453;-85
2021/06/05 08:21:38;;;;;;;;;0.00;0.00;;;;;16.28;64.14;102012.13;5066341;27;45351;-87
2021/06/05 08:24:04;;;;;;;;;0.00;0.00;;;;;16.85;64.46;102103.53;5072042;27;45584;-86
2021/06/05 08:26:29;;;;;;;;;0.00;0.00;;;;;16.71;63.80;102091.22;5084806;27;46364;-91
2021/06/05 08:28:55;;;;;;;;;0.75;0.00;;;;;16.61;64.24;102094.66;5070471;27;45552;-85
2021/06/05 08:31:21;;;;;;;;;0.00;0.00;;;;;16.64;64.15;102113.09;5075426;28;45588;-89
2021/06/05 08:33:48;;;;;;;;;0.00;0.00;;;;;15.88;64.59;101984.75;5077453;28;45425;-88
2021/06/05 08:36:16;;;;;;;;;0.00;0.00;;;;;16.52;63.69;102105.13;5071715;28;45477;-81
2021/06/05 08:38:43;;;;;;;;;0.25;0.25;;;;;16.53;64.18;102125.25;5072893;27;45443;-86
2021/06/05 08:41:17;;;;;;;;;0.00;0.00;;;;;16.62;64.57;102103.41;5071049;28;45508;-86
2021/06/05 08:43:47;;;;;;;;;0.00;0.00;;;;;16.77;64.28;102099.97;5074795;27;45504;-81
2021/06/05 08:46:19;;;;;;;;;0.00;0.00;;;;;16.32;63.88;102019.16;5065862;28;46515;-84
2021/06/05 08:48:45;;;;;;;;;0.00;0.00;;;;;16.68;64.16;102079.78;5065969;28;45362;-82
2021/06/05 08:51:26;;;;;;;;;0.00;0.00;;;;;16.80;63.97;102089.47;5061652;28;45459;-83
2021/06/05 08:53:55;;;;;;;;;0.00;0.00;;;;;16.79;63.74;102056.16;5070430;28;46272;-86
2021/06/05 08:56:32;;;;;;;;;0.00;0.00;;;;;17.09;63.66;102088.75;5068914;28;48305;-85
2021/06/05 08:59:01;;;;;;;;;0.00;0.00;;;;;17.07;63.10;102091.38;5068955;27;45675;-85
2021/06/05 09:01:39;;;;;;;;;0.00;0.00;;;;;16.82;63.38;102070.19;5073101;27;45472;-85
2021/06/05 09:04:16;;;;;;;;;0.00;0.00;;;;;16.92;63.73;102081.66;5090699;27;45852;-84
2021/06/05 09:06:51;;;;;;;;;0.50;0.25;;;;;16.96;63.71;102095.66;5070662;27;46115;-88
2021/06/05 09:09:20;;;;;;;;;0.00;0.00;;;;;17.03;63.76;102092.19;5069217;27;45665;-85
2021/06/05 09:11:46;;;;;;;;;0.00;0.00;;;;;17.16;63.77;102103.69;5065003;27;45498;-84
2021/06/05 09:14:11;;;;;;;;;1.00;0.00;;;;;16.92;62.66;102047.47;5064881;27;45484;-85
2021/06/05 09:16:47;;;;;;;;;0.00;0.00;;;;;17.20;63.20;102105.44;5056370;28;48161;-88
2021/06/05 09:19:21;;;;;;;;;0.00;0.00;;;;;16.94;63.34;102058.84;5069468;28;45260;-94
2021/06/05 09:21:56;;;;;;;;;2.00;0.00;;;;;17.18;63.03;102070.34;5075414;27;45703;-92
2021/06/05 09:24:28;;;;;;;;;0.00;0.00;;;;;17.57;63.25;102114.25;5072171;28;45445;-88
2021/06/05 09:27:03;;;;;;;;;1.00;1.00;;;;;17.59;62.46;102118.69;5068608;28;46004;-88
2021/06/05 09:29:30;;;;;;;;;2.00;0.00;;;;;17.56;61.73;102112.53;5071702;28;45870;-83
2021/06/05 09:32:08;;;;;;;;;0.00;0.00;;;;;17.63;62.41;102108.13;5070715;28;45443;-80
2021/06/05 09:34:43;;;;;;;;;0.00;0.00;;;;;17.52;61.68;102068.66;5057031;28;45473;-83
2021/06/05 09:37:44;;;;;;;;;0.00;0.00;;;;;17.96;61.74;102117.81;5060104;28;45401;-84
2021/06/05 09:40:29;;;;;;;;;0.00;0.00;;;;;18.04;61.00;102106.38;5067501;28;45439;-86
2021/06/05 09:43:12;;;;;;;;;0.00;0.00;;;;;18.12;60.94;102117.81;5073707;28;45556;-85
2021/06/05 09:46:03;;;;;;;;;1.00;1.00;;;;;18.18;60.46;102104.66;5064581;28;45537;-86
2021/06/05 09:48:35;;;;;;;;;0.00;0.00;;;;;18.22;60.44;102122.19;5073290;27;47943;-84
2021/06/05 09:51:22;;;;;;;;;1.00;1.00;;;;;17.98;59.67;102073.88;5068840;27;45444;-85
2021/06/05 09:53:57;;;;;;;;;1.00;0.00;;;;;17.65;60.15;102023.00;5061694;28;45467;-82
2021/06/05 09:56:28;;;;;;;;;0.50;0.00;;;;;18.32;60.25;102119.56;5074786;28;45207;-85
2021/06/05 09:59:14;;;;;;;;;0.00;0.00;;;;;18.40;59.93;102124.81;5072122;27;48523;-84
2021/06/05 10:01:39;;;;;;;;;0.00;0.00;;;;;18.10;60.05;102064.25;5068921;28;45553;-82
2021/06/05 10:04:08;;;;;;;;;0.00;0.00;;;;;18.40;59.61;102117.78;5062398;28;45388;-86
2021/06/05 10:06:38;;;;;;;;;0.00;0.00;;;;;18.29;58.91;102125.72;5067051;28;45450;-82
2021/06/05 10:09:24;;;;;;;;;0.00;0.00;;;;;18.14;59.01;102123.97;5068765;28;46428;-82
2021/06/05 10:11:54;;;;;;;;;0.00;0.00;;;;;17.46;59.38;102019.50;5062078;28;45435;-83
2021/06/05 10:14:29;;;;;;;;;1.00;0.00;;;;;17.96;59.22;102131.00;5064214;28;45919;-83
2021/06/05 10:17:05;;;;;;;;;0.00;0.00;;;;;17.89;59.66;102137.13;5068897;27;45479;-82
2021/06/05 10:19:45;;;;;;;;;0.25;0.25;;;;;17.65;59.48;102104.63;5074095;28;47234;-84
2021/06/05 10:22:12;;;;;;;;;0.00;0.00;;;;;17.63;60.18;102111.66;5070768;27;45446;-84
2021/06/05 10:24:44;;;;;;;;;0.00;0.00;;;;;17.79;60.30;102125.69;5067617;28;45582;-84
2021/06/05 10:27:13;;;;;;;;;0.25;0.25;;;;;17.51;59.81;102087.94;5069395;27;45789;-86
2021/06/05 10:29:45;;;;;;;;;1.00;0.00;;;;;17.26;59.91;102045.78;5073278;28;45529;-82
2021/06/05 10:32:22;;;;;;;;;0.00;0.00;;;;;17.73;59.25;102126.56;5070470;27;45516;-81
2021/06/05 10:35:04;;;;;;;;;0.00;0.00;;;;;17.39;60.22;102071.25;5069485;27;45489;-81
2021/06/05 10:37:32;;;;;;;;;0.25;0.00;;;;;17.20;60.33;102015.97;5074181;27;45300;-80
2021/06/05 10:40:00;;;;;;;;;0.00;0.00;;;;;17.90;60.39;102111.66;5076327;28;45699;-79
2021/06/05 10:42:37;;;;;;;;;0.00;0.00;;;;;17.40;59.86;101990.53;5072003;27;45563;-80
2021/06/05 10:45:07;;;;;;;;;0.00;0.00;;;;;18.14;59.49;102116.06;5072278;28;45574;-80
2021/06/05 10:47:48;;;;;;;;;0.00;0.00;;;;;18.15;58.85;102116.94;5075616;27;45521;-81
2021/06/05 10:50:28;;;;;;;;;0.00;0.00;;;;;17.95;59.55;102079.16;5073753;28;46083;-80
2021/06/05 10:53:11;;;;;;;;;0.00;0.00;;;;;18.19;59.49;102122.19;5073385;27;45553;-82
2021/06/05 10:55:49;;;;;;;;;0.00;0.00;;;;;17.81;59.87;102066.00;5069142;28;45344;-82
2021/06/05 10:58:26;;;;;;;;;0.00;0.00;;;;;18.09;60.63;102117.78;5071034;28;45327;-79
2021/06/05 11:00:58;;;;;;;;;0.25;0.00;;;;;17.93;60.56;102091.47;5069435;28;45540;-81
2021/06/05 11:03:23;;;;;;;;;0.00;0.00;;;;;18.19;60.37;102129.25;5069888;28;45417;-80
2021/06/05 11:06:10;;;;;;;;;0.00;0.00;;;;;18.20;60.44;102121.34;5072061;27;45547;-81
2021/06/05 11:08:38;;;;;;;;;0.00;0.00;;;;;18.14;60.29;102134.53;5068730;28;45358;-81
2021/06/05 11:11:06;;;;;;;;;0.00;0.00;;;;;18.10;60.87;102124.88;5074502;27;46158;-88
2021/06/05 11:13:32;;;;;;;;;0.00;0.00;;;;;18.13;60.50;102126.63;5071277;28;45613;-85
2021/06/05 11:16:00;;;;;;;;;0.75;0.75;;;;;17.63;60.95;102052.84;5061672;28;45333;-82
2021/06/05 11:18:28;;;;;;;;;0.00;0.00;;;;;18.16;61.06;102123.97;5063452;28;45333;-82
2021/06/05 11:20:54;;;;;;;;;0.00;0.00;;;;;18.24;60.84;102124.84;5064949;27;45509;-84
2021/06/05 11:23:21;;;;;;;;;0.00;0.00;;;;;17.92;60.34;102071.25;5070803;28;45889;-83
2021/06/05 11:25:49;;;;;;;;;0.00;0.00;;;;;18.20;60.51;102113.44;5068326;27;45787;-85
2021/06/05 11:28:20;;;;;;;;;0.00;0.00;;;;;18.22;60.26;102121.31;5090883;27;45585;-84
2021/06/05 11:30:45;;;;;;;;;0.50;0.50;;;;;17.83;60.78;102068.66;5069483;28;45507;-84
2021/06/05 11:33:38;;;;;;;;;0.00;0.00;;;;;18.08;61.06;102098.50;5066815;27;45451;-85